Time;durP1;ratioP1;P1;durP2;ratioP2;P2;SDS_P1;SDS_P2;PMS_P1;PMS_P2;Temp;Humidity;BMP_temperature;BMP_pressure;BME280_temperature;BME280_humidity;BME280_pressure;Samples;Min_cycle;Max_cycle;Signal;HPM_P1;HPM_P2
2021/01/23 00:01:19;;;;;;;158.52;68.68;;;0.70;99.90;;;;;;4989031;28;20400;-83
2021/01/23 00:03:45;;;;;;;480.77;175.00;;;0.60;99.90;;;;;;4974008;28;20429;-83
2021/01/23 00:06:11;;;;;;;173.88;70.88;;;0.60;99.90;;;;;;4973990;28;20022;-84
2021/01/23 00:08:37;;;;;;;120.80;52.92;;;0.70;99.90;;;;;;4972718;28;20023;-83
2021/01/23 00:11:03;;;;;;;79.68;35.47;;;0.70;99.90;;;;;;4968401;28;20034;-83
2021/01/23 00:13:29;;;;;;;111.35;49.63;;;0.90;99.90;;;;;;4954714;28;20028;-83
2021/01/23 00:15:54;;;;;;;131.40;55.72;;;0.90;99.90;;;;;;4953259;28;20031;-84
2021/01/23 00:18:20;;;;;;;95.68;42.78;;;0.90;99.90;;;;;;4952758;29;20055;-83
2021/01/23 00:20:46;;;;;;;94.72;41.00;;;0.90;99.90;;;;;;4953492;28;20489;-83
2021/01/23 00:23:12;;;;;;;168.85;70.25;;;0.90;99.90;;;;;;4955329;28;20026;-82
2021/01/23 00:25:37;;;;;;;191.95;74.97;;;0.90;99.90;;;;;;4953755;28;20097;-83
2021/01/23 00:28:04;;;;;;;200.68;82.00;;;0.80;99.90;;;;;;4953612;28;20035;-82
2021/01/23 00:30:30;;;;;;;117.80;49.25;;;0.80;99.90;;;;;;4953177;28;20019;-83
2021/01/23 00:32:55;;;;;;;115.35;53.00;;;0.80;99.90;;;;;;4953294;28;20106;-82
2021/01/23 00:35:21;;;;;;;117.93;50.15;;;0.90;99.90;;;;;;4954453;28;20074;-83
2021/01/23 00:37:48;;;;;;;337.52;144.38;;;0.90;99.90;;;;;;4954452;28;20023;-82
2021/01/23 00:40:15;;;;;;;152.52;68.25;;;0.90;99.90;;;;;;4952771;28;20049;-83
2021/01/23 00:42:40;;;;;;;99.50;43.33;;;0.90;99.90;;;;;;4970497;28;20077;-83
2021/01/23 00:45:07;;;;;;;99.43;45.17;;;1.10;99.90;;;;;;4973737;28;20034;-83
2021/01/23 00:47:33;;;;;;;85.93;40.05;;;1.10;99.90;;;;;;4973489;28;20015;-83
2021/01/23 00:49:58;;;;;;;67.35;32.67;;;1.20;99.90;;;;;;4973673;28;20027;-83
2021/01/23 00:52:24;;;;;;;56.75;27.27;;;1.20;99.90;;;;;;4972262;28;20065;-84
2021/01/23 00:54:50;;;;;;;36.38;17.35;;;1.30;99.90;;;;;;4972470;28;20176;-83
2021/01/23 00:57:16;;;;;;;45.05;18.50;;;1.70;99.90;;;;;;4973771;28;20038;-83
2021/01/23 00:59:42;;;;;;;42.10;20.40;;;2.00;99.90;;;;;;4973723;28;20038;-83
2021/01/23 01:02:07;;;;;;;63.92;29.40;;;2.00;99.90;;;;;;4973189;28;20035;-84
2021/01/23 01:04:33;;;;;;;57.10;24.65;;;1.90;99.90;;;;;;4973535;28;20508;-83
2021/01/23 01:06:59;;;;;;;60.53;27.65;;;1.70;99.90;;;;;;4986852;28;20019;-83
2021/01/23 01:09:25;;;;;;;47.03;20.25;;;1.70;99.90;;;;;;4972102;28;20029;-83
2021/01/23 01:11:50;;;;;;;39.20;19.30;;;1.60;99.90;;;;;;4976606;28;20034;-84
2021/01/23 01:14:17;;;;;;;40.47;18.48;;;1.70;99.90;;;;;;4954180;29;20063;-83
2021/01/23 01:16:42;;;;;;;28.25;14.48;;;1.90;99.90;;;;;;4952958;29;20385;-84
2021/01/23 01:19:08;;;;;;;26.42;14.45;;;2.20;99.90;;;;;;4968758;28;20024;-83
2021/01/23 01:21:34;;;;;;;38.92;17.42;;;2.50;99.90;;;;;;4953864;28;20039;-83
2021/01/23 01:24:00;;;;;;;33.47;14.77;;;2.70;99.90;;;;;;4953949;28;20066;-83
2021/01/23 01:26:27;;;;;;;34.33;16.30;;;3.00;99.90;;;;;;4954384;28;20051;-84
2021/01/23 01:28:52;;;;;;;32.63;14.43;;;3.20;99.90;;;;;;4952648;28;20015;-84
2021/01/23 01:31:19;;;;;;;24.55;12.48;;;3.30;99.90;;;;;;4953843;28;20078;-84
2021/01/23 01:33:45;;;;;;;26.83;13.20;;;3.40;99.90;;;;;;4952945;28;20027;-83
2021/01/23 01:36:11;;;;;;;26.65;12.90;;;3.60;99.90;;;;;;4955587;28;20027;-84
2021/01/23 01:38:36;;;;;;;27.98;13.40;;;3.60;99.90;;;;;;4972160;28;20023;-84
2021/01/23 01:41:02;;;;;;;23.20;11.30;;;3.70;99.90;;;;;;4962758;28;20117;-84
2021/01/23 01:43:28;;;;;;;24.95;11.68;;;3.90;99.90;;;;;;4976390;28;20114;-84
2021/01/23 01:45:55;;;;;;;23.30;10.35;;;3.90;99.90;;;;;;4975663;28;20019;-84
2021/01/23 01:48:20;;;;;;;23.75;10.88;;;3.90;99.90;;;;;;4975096;28;20054;-83
2021/01/23 01:50:46;;;;;;;23.13;10.65;;;4.00;99.90;;;;;;4976578;28;20121;-85
2021/01/23 01:53:12;;;;;;;21.58;10.77;;;4.00;99.90;;;;;;4976106;28;20031;-84
2021/01/23 01:55:38;;;;;;;24.17;11.18;;;4.00;99.90;;;;;;4976349;28;20034;-84
2021/01/23 01:58:03;;;;;;;21.63;10.50;;;4.10;99.90;;;;;;4974538;28;20058;-83
2021/01/23 02:00:30;;;;;;;18.90;9.50;;;4.00;99.90;;;;;;4989701;28;20022;-84
2021/01/23 02:02:58;;;;;;;20.17;9.23;;;4.00;99.90;;;;;;4975259;28;20043;-84
2021/01/23 02:05:33;;;;;;;15.75;7.72;;;4.00;99.90;;;;;;4976258;28;20057;-84
2021/01/23 02:08:24;;;;;;;14.82;8.77;;;4.00;99.90;;;;;;4976297;28;20026;-83
2021/01/23 02:11:15;;;;;;;15.82;7.93;;;3.90;99.90;;;;;;4969854;28;20499;-83
2021/01/23 02:13:49;;;;;;;16.88;8.13;;;3.80;99.90;;;;;;4955540;29;20464;-84
2021/01/23 02:16:20;;;;;;;14.80;7.57;;;3.90;99.90;;;;;;4956456;28;20100;-84
2021/01/23 02:19:17;;;;;;;18.05;8.32;;;3.90;99.90;;;;;;4956965;28;20027;-83
2021/01/23 02:22:24;;;;;;;19.80;9.05;;;3.90;99.90;;;;;;4956722;28;20195;-83
2021/01/23 02:24:52;;;;;;;15.13;7.72;;;3.80;99.90;;;;;;4971859;28;20023;-83
2021/01/23 02:27:35;;;;;;;24.42;8.65;;;3.80;99.90;;;;;;4968800;28;20098;-83
2021/01/23 02:30:06;;;;;;;17.88;8.32;;;3.70;99.90;;;;;;4965064;28;20028;-84
2021/01/23 02:32:35;;;;;;;15.20;7.47;;;3.70;99.90;;;;;;4956261;28;20027;-84
2021/01/23 02:35:02;;;;;;;16.38;8.25;;;3.70;99.90;;;;;;4956379;28;20466;-83
2021/01/23 02:37:29;;;;;;;20.23;8.00;;;3.70;99.90;;;;;;4956085;28;20027;-85
2021/01/23 02:39:56;;;;;;;16.77;8.27;;;3.70;99.90;;;;;;4954962;29;20117;-85
2021/01/23 02:42:22;;;;;;;14.07;8.10;;;3.60;99.90;;;;;;4973195;28;20493;-85
2021/01/23 02:44:48;;;;;;;13.57;7.65;;;3.70;99.90;;;;;;4975589;28;20098;-84
2021/01/23 02:47:14;;;;;;;15.05;7.80;;;3.70;99.90;;;;;;4973386;28;20388;-84
2021/01/23 02:49:39;;;;;;;10.25;7.70;;;3.80;99.90;;;;;;4975100;28;20027;-84
2021/01/23 02:52:23;;;;;;;16.13;7.05;;;4.00;99.90;;;;;;4975277;28;20598;-85
2021/01/23 02:54:51;;;;;;;19.38;8.45;;;4.00;99.90;;;;;;4974418;28;20481;-85
2021/01/23 02:57:20;;;;;;;17.20;8.13;;;4.10;99.90;;;;;;4989782;28;20034;-84
2021/01/23 02:59:49;;;;;;;10.70;6.78;;;4.10;99.90;;;;;;4961667;28;20131;-84
2021/01/23 03:02:18;;;;;;;13.38;7.95;;;4.10;99.90;;;;;;4971024;28;20067;-84
2021/01/23 03:04:46;;;;;;;15.35;7.50;;;4.10;99.90;;;;;;4955948;28;20020;-83
2021/01/23 03:07:16;;;;;;;19.63;7.35;;;4.10;99.90;;;;;;4955835;28;20023;-83
2021/01/23 03:09:42;;;;;;;13.25;6.88;;;4.10;99.90;;;;;;4957062;28;20106;-84
2021/01/23 03:12:09;;;;;;;15.30;8.43;;;4.00;99.90;;;;;;4955464;28;20031;-84
2021/01/23 03:14:35;;;;;;;11.27;6.43;;;4.00;99.90;;;;;;4955746;28;20023;-83
2021/01/23 03:17:02;;;;;;;12.80;8.27;;;4.00;99.90;;;;;;4955462;28;20484;-83
2021/01/23 03:19:27;;;;;;;12.40;6.93;;;4.00;99.90;;;;;;4955645;28;20054;-84
2021/01/23 03:21:53;;;;;;;13.75;7.72;;;3.90;99.90;;;;;;4955660;28;20126;-85
2021/01/23 03:24:20;;;;;;;11.18;6.57;;;3.90;99.90;;;;;;4970093;28;20143;-84
2021/01/23 03:26:46;;;;;;;16.42;7.18;;;3.80;99.90;;;;;;4955549;28;20028;-84
2021/01/23 03:29:13;;;;;;;14.00;6.72;;;3.90;99.90;;;;;;4954112;28;20110;-84
2021/01/23 03:31:39;;;;;;;12.95;7.32;;;4.00;99.90;;;;;;4953825;29;20027;-84
2021/01/23 03:34:05;;;;;;;11.30;6.60;;;4.00;99.90;;;;;;4954363;29;20035;-84
2021/01/23 03:36:31;;;;;;;13.70;7.75;;;4.10;99.90;;;;;;4954045;29;20019;-84
2021/01/23 03:38:57;;;;;;;11.68;6.90;;;4.10;99.90;;;;;;4954102;29;20039;-84
2021/01/23 03:41:23;;;;;;;12.68;7.55;;;4.30;99.90;;;;;;4970702;28;20039;-85
2021/01/23 03:43:50;;;;;;;16.30;8.35;;;4.30;99.90;;;;;;4973139;28;20046;-84
2021/01/23 03:46:16;;;;;;;15.30;8.60;;;4.20;99.90;;;;;;4974056;28;20866;-84
2021/01/23 03:48:42;;;;;;;15.15;8.77;;;4.20;99.90;;;;;;4955039;28;20027;-84
2021/01/23 03:51:08;;;;;;;16.73;9.30;;;4.10;99.90;;;;;;4954868;28;20496;-84
2021/01/23 03:53:35;;;;;;;17.17;9.80;;;4.10;99.90;;;;;;4955072;28;20038;-84
2021/01/23 03:56:01;;;;;;;19.70;10.85;;;4.10;99.90;;;;;;4954848;28;20066;-84
2021/01/23 03:58:27;;;;;;;18.38;9.95;;;4.10;99.90;;;;;;4953365;28;20397;-84
2021/01/23 04:00:53;;;;;;;22.92;9.32;;;4.00;99.90;;;;;;4969831;28;20020;-85
2021/01/23 04:03:19;;;;;;;23.38;12.55;;;4.00;99.90;;;;;;4954208;28;20366;-84
2021/01/23 04:05:44;;;;;;;21.55;10.50;;;4.00;99.90;;;;;;4953592;28;20039;-84
2021/01/23 04:08:10;;;;;;;19.83;11.13;;;4.00;99.90;;;;;;4954713;28;20042;-85
2021/01/23 04:10:37;;;;;;;21.10;10.48;;;4.00;99.90;;;;;;4964718;28;20556;-84
2021/01/23 04:13:03;;;;;;;17.83;10.02;;;4.00;99.90;;;;;;4974024;28;20085;-84
2021/01/23 04:15:29;;;;;;;17.63;9.27;;;4.10;99.90;;;;;;4973728;28;20066;-84
2021/01/23 04:17:55;;;;;;;18.10;9.18;;;4.10;99.90;;;;;;4973668;28;20023;-85
2021/01/23 04:20:22;;;;;;;22.20;11.23;;;4.10;99.90;;;;;;4973755;28;20029;-84
2021/01/23 04:22:48;;;;;;;18.58;10.27;;;4.10;99.90;;;;;;4972553;28;20062;-85
2021/01/23 04:25:14;;;;;;;19.45;10.30;;;4.10;99.90;;;;;;4972497;28;20031;-85
2021/01/23 04:27:41;;;;;;;20.77;11.43;;;4.10;99.90;;;;;;4972909;28;20429;-85
2021/01/23 04:30:08;;;;;;;20.73;11.63;;;4.00;99.90;;;;;;4989023;28;20027;-84
2021/01/23 04:32:35;;;;;;;21.00;10.77;;;4.00;99.90;;;;;;4955505;28;20034;-85
2021/01/23 04:35:04;;;;;;;21.85;10.40;;;3.90;99.90;;;;;;4969206;28;20023;-85
2021/01/23 04:37:30;;;;;;;23.05;11.18;;;3.90;99.90;;;;;;4969559;28;20024;-85
2021/01/23 04:39:56;;;;;;;17.63;10.45;;;3.90;99.90;;;;;;4954330;28;20031;-85
2021/01/23 04:42:21;;;;;;;18.70;11.10;;;3.90;99.90;;;;;;4969091;28;20038;-85
2021/01/23 04:44:47;;;;;;;19.02;10.52;;;3.90;99.90;;;;;;4969271;28;20058;-85
2021/01/23 04:47:14;;;;;;;22.35;10.38;;;3.90;99.90;;;;;;4978721;28;20015;-85
2021/01/23 04:49:40;;;;;;;17.50;9.80;;;3.90;99.90;;;;;;4972978;28;20018;-84
2021/01/23 04:52:06;;;;;;;21.30;11.25;;;3.90;99.90;;;;;;4972145;28;20390;-84
2021/01/23 04:54:33;;;;;;;18.23;10.77;;;3.90;99.90;;;;;;4973864;28;20027;-84
2021/01/23 04:57:00;;;;;;;21.33;11.55;;;3.90;99.90;;;;;;4973648;28;20043;-84
2021/01/23 04:59:26;;;;;;;17.95;10.07;;;3.90;99.90;;;;;;4973644;28;20029;-83
2021/01/23 05:02:16;;;;;;;23.90;11.30;;;3.90;99.90;;;;;;4961654;28;20031;-84
2021/01/23 05:04:47;;;;;;;21.65;10.70;;;3.90;99.90;;;;;;4954530;28;20027;-84
2021/01/23 05:07:33;;;;;;;20.52;10.10;;;3.90;99.90;;;;;;4969656;28;20029;-85
2021/01/23 05:10:16;;;;;;;17.60;9.35;;;3.90;99.90;;;;;;4973319;28;20023;-84
2021/01/23 05:12:46;;;;;;;23.10;10.68;;;3.90;99.90;;;;;;4977173;28;20026;-84
2021/01/23 05:15:32;;;;;;;21.35;10.45;;;3.90;99.90;;;;;;4992022;28;20027;-84
2021/01/23 05:18:02;;;;;;;17.13;10.07;;;3.90;99.90;;;;;;4977308;28;20031;-84
2021/01/23 05:20:51;;;;;;;18.10;9.73;;;3.90;99.90;;;;;;4976804;28;20384;-84
2021/01/23 05:23:27;;;;;;;15.75;8.98;;;3.90;99.90;;;;;;4977119;28;20027;-84
2021/01/23 05:26:00;;;;;;;24.85;8.95;;;4.00;99.90;;;;;;4977072;28;20023;-84
2021/01/23 05:28:29;;;;;;;19.10;9.27;;;4.00;99.90;;;;;;4976936;28;20031;-84
2021/01/23 05:30:56;;;;;;;17.00;8.65;;;4.10;99.90;;;;;;4974003;28;20027;-84
2021/01/23 05:33:25;;;;;;;18.75;9.73;;;4.10;99.90;;;;;;4976829;28;20030;-84
2021/01/23 05:36:05;;;;;;;18.63;10.25;;;4.10;99.90;;;;;;4975411;28;20030;-85
2021/01/23 05:38:36;;;;;;;18.17;11.02;;;4.00;99.90;;;;;;4976829;28;20058;-85
2021/01/23 05:41:08;;;;;;;19.55;9.75;;;3.90;99.90;;;;;;4976503;28;20511;-84
2021/01/23 05:43:36;;;;;;;17.55;9.27;;;3.90;99.90;;;;;;4975571;28;20114;-84
2021/01/23 05:46:07;;;;;;;20.88;10.40;;;3.90;99.90;;;;;;4973825;28;20464;-84
2021/01/23 05:48:34;;;;;;;19.20;9.68;;;3.90;99.90;;;;;;4957235;28;20015;-84
2021/01/23 05:51:01;;;;;;;24.58;11.48;;;3.90;99.90;;;;;;4972228;28;20070;-84
2021/01/23 05:53:28;;;;;;;22.88;10.75;;;3.90;99.90;;;;;;4957018;28;20023;-84
2021/01/23 05:55:54;;;;;;;19.10;10.50;;;3.90;99.90;;;;;;4955837;28;20094;-84
2021/01/23 05:58:20;;;;;;;22.65;10.13;;;3.90;99.90;;;;;;4956723;28;20094;-84
2021/01/23 06:00:48;;;;;;;23.42;10.90;;;3.90;99.90;;;;;;4971580;28;20027;-84
2021/01/23 06:03:14;;;;;;;32.00;11.68;;;3.90;99.90;;;;;;4971706;28;20031;-84
2021/01/23 06:05:41;;;;;;;20.65;11.25;;;3.90;99.90;;;;;;4956786;28;20370;-85
2021/01/23 06:08:07;;;;;;;26.75;12.27;;;3.90;99.90;;;;;;4956615;28;20027;-84
2021/01/23 06:10:34;;;;;;;24.90;14.25;;;3.90;99.90;;;;;;4956769;28;20023;-84
2021/01/23 06:13:00;;;;;;;30.15;13.40;;;3.90;99.90;;;;;;4956519;28;20027;-83
2021/01/23 06:15:32;;;;;;;29.75;14.90;;;3.90;99.90;;;;;;4956579;28;20103;-84
2021/01/23 06:18:07;;;;;;;31.20;13.73;;;3.90;99.90;;;;;;4956726;28;20487;-83
2021/01/23 06:20:42;;;;;;;29.38;14.15;;;3.90;99.90;;;;;;4971402;28;20083;-84
2021/01/23 06:23:08;;;;;;;32.65;15.15;;;3.80;99.90;;;;;;4954016;28;20404;-84
2021/01/23 06:25:49;;;;;;;34.72;15.85;;;3.80;99.90;;;;;;4956227;28;20031;-84
2021/01/23 06:28:38;;;;;;;34.10;17.33;;;3.80;99.90;;;;;;4956483;28;20078;-82
2021/01/23 06:31:22;;;;;;;32.75;16.58;;;3.70;99.90;;;;;;4955193;28;20027;-83
2021/01/23 06:33:49;;;;;;;28.58;15.70;;;3.60;99.90;;;;;;4956434;28;20042;-83
2021/01/23 06:36:19;;;;;;;26.02;14.65;;;3.60;99.90;;;;;;4956401;28;20046;-84
2021/01/23 06:39:08;;;;;;;33.45;15.50;;;3.60;99.90;;;;;;4956386;28;20027;-83
2021/01/23 06:41:38;;;;;;;36.30;15.32;;;3.60;99.90;;;;;;4969753;28;20481;-84
2021/01/23 06:44:07;;;;;;;35.60;16.00;;;3.60;99.90;;;;;;4975641;28;20063;-83
2021/01/23 06:46:36;;;;;;;26.73;15.15;;;3.60;99.90;;;;;;4975546;28;20105;-84
2021/01/23 06:49:03;;;;;;;24.35;13.10;;;3.70;99.90;;;;;;4975704;28;20023;-83
2021/01/23 06:51:29;;;;;;;26.90;12.95;;;3.70;99.90;;;;;;4975295;28;20027;-83
2021/01/23 06:54:13;;;;;;;23.80;11.85;;;3.80;99.90;;;;;;4990572;28;20372;-84
2021/01/23 06:56:49;;;;;;;26.52;12.38;;;3.90;99.90;;;;;;4974206;28;20361;-83
2021/01/23 06:59:28;;;;;;;22.25;11.43;;;3.90;99.90;;;;;;4973081;28;20029;-84
2021/01/23 07:01:57;;;;;;;23.35;12.45;;;3.90;99.90;;;;;;4969698;28;21068;-84
2021/01/23 07:04:26;;;;;;;38.55;14.27;;;3.90;99.90;;;;;;4970086;28;20027;-83
2021/01/23 07:06:56;;;;;;;26.83;11.77;;;3.90;99.90;;;;;;4969057;28;20507;-84
2021/01/23 07:09:46;;;;;;;20.17;11.73;;;3.90;99.90;;;;;;4972812;28;20424;-84
2021/01/23 07:12:12;;;;;;;18.45;10.38;;;4.10;99.90;;;;;;4968223;28;20397;-84
2021/01/23 07:14:44;;;;;;;27.70;10.90;;;4.20;99.90;;;;;;4971311;28;20022;-84
2021/01/23 07:17:15;;;;;;;23.25;12.55;;;4.30;99.90;;;;;;4973994;28;20027;-83
2021/01/23 07:19:41;;;;;;;23.75;12.30;;;4.20;99.90;;;;;;4972460;28;20030;-83
2021/01/23 07:22:07;;;;;;;28.60;12.98;;;4.20;99.90;;;;;;4974140;28;20039;-84
2021/01/23 07:24:36;;;;;;;27.00;11.95;;;4.20;99.90;;;;;;4972727;28;20026;-84
2021/01/23 07:27:05;;;;;;;25.30;12.55;;;4.10;99.90;;;;;;4971711;28;20030;-83
2021/01/23 07:29:31;;;;;;;20.13;11.98;;;4.10;99.90;;;;;;4970739;28;20019;-83
2021/01/23 07:31:56;;;;;;;17.30;10.52;;;4.10;99.90;;;;;;4987219;28;20077;-83
2021/01/23 07:34:22;;;;;;;23.23;11.48;;;4.00;99.90;;;;;;4971678;28;20030;-84
2021/01/23 07:36:48;;;;;;;22.52;10.60;;;4.10;99.90;;;;;;4973735;28;20038;-83
2021/01/23 07:39:18;;;;;;;22.08;11.40;;;4.10;99.90;;;;;;4973385;28;20023;-83
2021/01/23 07:41:55;;;;;;;22.58;10.00;;;4.20;99.90;;;;;;4988793;28;20035;-84
2021/01/23 07:44:24;;;;;;;25.90;11.82;;;4.30;99.90;;;;;;4973427;28;20026;-83
2021/01/23 07:46:51;;;;;;;28.55;12.95;;;4.30;99.90;;;;;;4973331;28;20026;-83
2021/01/23 07:49:24;;;;;;;34.88;17.45;;;4.30;99.90;;;;;;4971083;28;20038;-83
2021/01/23 07:51:51;;;;;;;32.33;15.77;;;4.30;99.90;;;;;;4953128;28;20027;-82
2021/01/23 07:54:17;;;;;;;25.98;14.57;;;4.30;99.90;;;;;;4954976;28;20057;-82
2021/01/23 07:56:56;;;;;;;30.67;14.77;;;4.30;99.90;;;;;;4969930;28;20032;-83
2021/01/23 07:59:40;;;;;;;27.65;13.98;;;4.30;99.90;;;;;;4980234;28;20153;-82
2021/01/23 08:02:06;;;;;;;32.90;18.55;;;4.40;99.90;;;;;;4979461;28;20031;-83
2021/01/23 08:04:33;;;;;;;28.42;17.17;;;4.40;99.90;;;;;;4972720;28;20038;-83
2021/01/23 08:07:20;;;;;;;32.92;19.15;;;4.30;99.90;;;;;;4973746;28;20085;-83
2021/01/23 08:10:03;;;;;;;27.48;15.52;;;4.40;99.90;;;;;;4991975;28;20096;-82
2021/01/23 08:12:28;;;;;;;27.70;14.77;;;4.40;99.90;;;;;;4993494;28;20018;-82
2021/01/23 08:14:55;;;;;;;25.80;14.45;;;4.40;99.90;;;;;;4989444;28;20049;-83
2021/01/23 08:17:37;;;;;;;27.55;13.20;;;4.40;99.90;;;;;;4970744;28;20023;-84
2021/01/23 08:20:04;;;;;;;28.50;16.08;;;4.40;99.90;;;;;;4972239;28;20030;-83
2021/01/23 08:22:30;;;;;;;32.22;17.83;;;4.50;99.90;;;;;;4972096;28;20027;-83
2021/01/23 08:24:56;;;;;;;26.58;15.57;;;4.50;99.90;;;;;;4974507;28;20018;-83
2021/01/23 08:27:22;;;;;;;32.22;17.08;;;4.50;99.90;;;;;;4971483;28;20045;-83
2021/01/23 08:29:51;;;;;;;30.65;15.95;;;4.50;99.90;;;;;;4973100;28;20019;-83
2021/01/23 08:32:18;;;;;;;29.88;15.70;;;4.50;99.90;;;;;;4970093;28;20105;-83
2021/01/23 08:34:45;;;;;;;30.85;16.67;;;4.50;99.90;;;;;;4975447;28;20551;-83
2021/01/23 08:37:11;;;;;;;28.48;15.63;;;4.50;99.90;;;;;;4976790;28;20026;-82
2021/01/23 08:39:48;;;;;;;27.40;15.35;;;4.40;99.90;;;;;;4974638;28;20027;-83
2021/01/23 08:42:14;;;;;;;32.03;18.13;;;4.50;99.90;;;;;;4973377;28;20035;-83
2021/01/23 08:44:40;;;;;;;27.40;15.88;;;4.40;99.90;;;;;;4976040;28;20480;-82
2021/01/23 08:47:06;;;;;;;27.23;15.00;;;4.50;99.90;;;;;;4993541;28;20113;-83
2021/01/23 08:49:32;;;;;;;35.08;19.02;;;4.50;99.90;;;;;;4980554;28;20110;-83
2021/01/23 08:51:58;;;;;;;36.88;19.33;;;4.60;99.90;;;;;;4977235;28;20027;-84
2021/01/23 08:54:24;;;;;;;59.03;24.27;;;4.60;99.90;;;;;;4956145;28;20458;-83
2021/01/23 08:56:50;;;;;;;52.30;24.15;;;4.60;99.90;;;;;;4957136;28;20031;-83
2021/01/23 08:59:16;;;;;;;46.67;21.50;;;4.70;99.90;;;;;;4957743;28;20493;-83
2021/01/23 09:01:42;;;;;;;50.78;21.42;;;4.70;99.90;;;;;;4957486;28;20027;-84
2021/01/23 09:04:08;;;;;;;37.25;17.55;;;4.70;99.90;;;;;;4957391;28;20702;-83
2021/01/23 09:06:34;;;;;;;32.55;17.17;;;4.70;99.90;;;;;;4956708;28;20019;-84
2021/01/23 09:08:59;;;;;;;26.58;15.45;;;4.80;99.90;;;;;;4957356;28;20041;-82
2021/01/23 09:11:25;;;;;;;27.52;16.25;;;4.80;99.90;;;;;;4959897;28;20035;-84
2021/01/23 09:13:51;;;;;;;24.17;13.27;;;4.80;99.90;;;;;;4978648;28;20468;-84
2021/01/23 09:16:17;;;;;;;20.60;12.18;;;4.90;99.90;;;;;;4991023;28;20369;-84
2021/01/23 09:18:43;;;;;;;17.27;11.15;;;4.90;99.90;;;;;;4993562;28;20461;-84
2021/01/23 09:21:08;;;;;;;17.10;10.25;;;4.90;99.90;;;;;;4982614;28;20019;-84
2021/01/23 09:23:34;;;;;;;19.33;10.40;;;5.00;99.90;;;;;;4979231;28;20392;-85
2021/01/23 09:26:03;;;;;;;20.67;9.77;;;5.00;99.90;;;;;;4984441;28;20070;-84
2021/01/23 09:28:32;;;;;;;20.25;9.82;;;5.00;99.90;;;;;;4984686;28;20034;-84
2021/01/23 09:30:58;;;;;;;17.50;9.75;;;5.10;99.90;;;;;;4975264;28;20022;-84
2021/01/23 09:33:27;;;;;;;22.92;10.70;;;5.10;99.90;;;;;;4978056;28;20102;-84
2021/01/23 09:35:53;;;;;;;21.17;10.63;;;5.10;99.90;;;;;;4971618;28;20553;-84
2021/01/23 09:38:19;;;;;;;18.30;9.23;;;5.20;99.90;;;;;;4973967;28;20101;-84
2021/01/23 09:40:44;;;;;;;23.85;12.23;;;5.30;99.90;;;;;;4976858;28;20019;-83
2021/01/23 09:43:10;;;;;;;23.38;12.27;;;5.40;99.90;;;;;;4981484;28;20038;-84
2021/01/23 09:45:37;;;;;;;21.23;11.68;;;5.40;99.90;;;;;;4978706;28;20038;-83
2021/01/23 09:48:03;;;;;;;21.55;10.93;;;5.40;99.90;;;;;;4973420;28;20492;-82
2021/01/23 09:50:28;;;;;;;20.77;10.27;;;5.40;99.90;;;;;;4981809;28;20582;-83
2021/01/23 09:52:54;;;;;;;20.05;10.60;;;5.50;99.90;;;;;;4985061;28;20031;-81
2021/01/23 09:55:20;;;;;;;19.50;11.88;;;5.50;99.90;;;;;;4978498;28;20027;-84
2021/01/23 09:57:46;;;;;;;21.65;10.95;;;5.60;99.90;;;;;;4977365;28;20044;-82
2021/01/23 10:00:12;;;;;;;21.83;13.48;;;5.70;99.90;;;;;;4996207;28;20047;-83
2021/01/23 10:02:38;;;;;;;12.77;7.53;;;5.80;99.90;;;;;;4974396;28;20073;-84
2021/01/23 10:05:05;;;;;;;9.93;6.50;;;6.00;99.90;;;;;;4981967;28;20046;-83
2021/01/23 10:07:30;;;;;;;10.82;5.85;;;6.10;99.90;;;;;;4980706;28;20023;-84
2021/01/23 10:09:56;;;;;;;10.93;6.20;;;6.20;99.90;;;;;;4980909;28;20060;-84
2021/01/23 10:12:22;;;;;;;13.07;7.03;;;6.30;99.90;;;;;;4988679;28;20101;-84
2021/01/23 10:14:48;;;;;;;12.13;5.90;;;6.40;99.90;;;;;;4979747;28;20022;-84
2021/01/23 10:17:14;;;;;;;9.20;5.35;;;6.50;99.90;;;;;;4975481;28;20491;-84
2021/01/23 10:19:41;;;;;;;8.80;5.53;;;6.60;99.90;;;;;;4990453;28;20033;-84
2021/01/23 10:22:07;;;;;;;11.25;6.10;;;6.70;99.90;;;;;;4971329;28;20045;-84
2021/01/23 10:24:33;;;;;;;8.55;5.32;;;6.80;99.90;;;;;;4979043;28;20424;-84
2021/01/23 10:26:59;;;;;;;7.78;4.70;;;6.90;99.90;;;;;;5003824;28;20026;-85
2021/01/23 10:29:24;;;;;;;7.03;4.65;;;7.10;99.90;;;;;;4994972;28;20068;-84
2021/01/23 10:31:50;;;;;;;8.93;4.93;;;7.10;99.90;;;;;;4988164;28;20054;-84
2021/01/23 10:34:16;;;;;;;7.43;4.80;;;7.20;99.90;;;;;;4988749;28;20480;-84
2021/01/23 10:36:42;;;;;;;9.75;5.40;;;7.30;99.00;;;;;;4988050;28;20026;-84
2021/01/23 10:39:07;;;;;;;12.93;6.25;;;7.40;98.10;;;;;;4994286;28;20475;-83
2021/01/23 10:41:33;;;;;;;26.13;13.63;;;7.40;97.50;;;;;;4992197;28;20034;-86
2021/01/23 10:43:59;;;;;;;9.55;6.53;;;7.50;95.60;;;;;;4983530;28;20154;-85
2021/01/23 10:46:25;;;;;;;11.15;7.00;;;7.60;93.90;;;;;;4972985;28;20168;-85
2021/01/23 10:48:51;;;;;;;24.30;9.02;;;7.60;93.10;;;;;;4973575;28;20034;-84
2021/01/23 10:51:16;;;;;;;15.27;6.05;;;7.60;92.70;;;;;;4980043;28;20037;-85
2021/01/23 10:53:46;;;;;;;13.48;6.72;;;7.60;92.20;;;;;;4987699;28;20049;-85
2021/01/23 10:56:15;;;;;;;14.38;8.82;;;7.60;91.20;;;;;;4992289;28;20112;-85
2021/01/23 10:58:41;;;;;;;47.33;21.38;;;7.60;91.00;;;;;;4983031;28;20043;-85
2021/01/23 11:01:12;;;;;;;27.50;12.18;;;7.70;91.20;;;;;;4974196;28;20082;-84
2021/01/23 11:03:38;;;;;;;19.50;9.80;;;7.70;90.90;;;;;;4973257;28;20054;-87
2021/01/23 11:06:04;;;;;;;13.98;6.30;;;7.70;90.60;;;;;;4985881;28;20468;-84
2021/01/23 11:08:30;;;;;;;15.52;7.97;;;7.80;89.20;;;;;;4992834;28;20451;-84
2021/01/23 11:10:56;;;;;;;22.08;11.90;;;7.90;89.60;;;;;;4977732;28;20496;-85
2021/01/23 11:13:22;;;;;;;13.10;6.38;;;7.90;88.90;;;;;;4988668;28;20066;-85
2021/01/23 11:15:51;;;;;;;14.13;6.95;;;7.90;88.90;;;;;;4973830;28;20394;-84
2021/01/23 11:18:16;;;;;;;9.40;5.78;;;7.90;88.90;;;;;;4972104;28;20122;-85
2021/01/23 11:20:45;;;;;;;11.90;6.32;;;8.00;87.20;;;;;;4972223;28;20110;-84
2021/01/23 11:23:14;;;;;;;14.48;7.85;;;8.00;88.10;;;;;;4972770;28;21254;-84
2021/01/23 11:25:40;;;;;;;12.35;6.45;;;8.10;88.10;;;;;;4987485;28;20027;-85
2021/01/23 11:28:06;;;;;;;14.65;9.18;;;8.20;86.50;;;;;;4973222;28;20034;-84
2021/01/23 11:30:32;;;;;;;21.38;11.00;;;8.20;85.60;;;;;;4989939;28;20014;-84
2021/01/23 11:32:58;;;;;;;28.33;13.40;;;8.20;85.50;;;;;;4974145;28;20027;-83
2021/01/23 11:35:26;;;;;;;49.00;21.65;;;8.30;85.20;;;;;;4953829;28;20424;-84
2021/01/23 11:37:55;;;;;;;30.50;15.00;;;8.30;84.50;;;;;;4974106;28;20027;-84
2021/01/23 11:40:21;;;;;;;21.52;11.77;;;8.30;84.10;;;;;;4974708;28;20026;-84
2021/01/23 11:42:47;;;;;;;27.70;15.90;;;8.30;83.60;;;;;;4987998;28;20493;-85
2021/01/23 11:45:13;;;;;;;32.22;16.23;;;8.20;83.40;;;;;;4989300;28;20034;-85
2021/01/23 11:47:39;;;;;;;29.77;16.10;;;8.20;84.50;;;;;;4973673;28;20031;-85
2021/01/23 11:50:11;;;;;;;25.83;14.02;;;8.20;84.50;;;;;;4974293;28;20023;-84
2021/01/23 11:52:36;;;;;;;18.83;10.93;;;8.10;85.70;;;;;;4974481;28;20591;-84
2021/01/23 11:55:04;;;;;;;16.38;9.40;;;8.10;86.20;;;;;;4973118;28;20310;-83
2021/01/23 11:57:29;;;;;;;13.85;7.80;;;8.10;87.40;;;;;;4923058;28;20046;-85
2021/01/23 11:59:55;;;;;;;12.20;7.10;;;8.10;88.40;;;;;;4986096;28;20026;-85
2021/01/23 12:02:21;;;;;;;17.92;9.25;;;8.00;89.40;;;;;;4990519;28;20038;-84
2021/01/23 12:04:47;;;;;;;23.10;13.10;;;8.00;91.60;;;;;;4993455;28;20022;-85
2021/01/23 12:07:16;;;;;;;16.27;7.88;;;7.90;96.00;;;;;;4992518;28;20380;-85
2021/01/23 12:09:43;;;;;;;13.93;6.55;;;7.90;95.50;;;;;;4992916;28;20030;-84
2021/01/23 12:12:09;;;;;;;13.48;7.10;;;7.80;96.20;;;;;;4999544;28;20031;-89
2021/01/23 12:14:35;;;;;;;11.73;6.20;;;7.80;97.30;;;;;;4972467;28;20026;-86
2021/01/23 12:17:01;;;;;;;11.70;5.90;;;7.80;96.60;;;;;;4971727;28;20503;-85
2021/01/23 12:19:27;;;;;;;12.35;6.63;;;7.80;96.80;;;;;;4973351;28;20106;-86
2021/01/23 12:21:53;;;;;;;12.55;6.90;;;7.80;96.20;;;;;;4973758;28;20117;-87
2021/01/23 12:24:19;;;;;;;11.05;5.55;;;7.90;95.20;;;;;;4972788;28;20033;-90
2021/01/23 12:26:49;;;;;;;10.77;6.78;;;8.00;94.60;;;;;;4974040;28;20069;-89
2021/01/23 12:29:14;;;;;;;12.52;7.38;;;8.00;92.50;;;;;;4972505;28;20392;-89
2021/01/23 12:31:40;;;;;;;13.80;7.68;;;8.10;92.50;;;;;;4972549;28;20019;-85
2021/01/23 12:34:06;;;;;;;15.02;8.57;;;8.10;90.90;;;;;;4973936;28;20031;-88
2021/01/23 12:36:32;;;;;;;13.52;8.90;;;8.10;90.20;;;;;;4973849;28;20034;-91
2021/01/23 12:38:58;;;;;;;11.93;6.88;;;8.20;87.80;;;;;;4973916;28;20042;-91
2021/01/23 12:41:23;;;;;;;14.85;8.07;;;8.20;87.20;;;;;;4957346;28;20047;-87
2021/01/23 12:43:49;;;;;;;7.20;5.70;;;8.20;86.20;;;;;;4954291;28;20031;-90
2021/01/23 12:46:15;;;;;;;11.02;7.05;;;8.20;85.10;;;;;;4969112;28;20039;-89